createdAt,value
2022-09-07T00:02:54.931Z,81.52
2022-09-07T00:05:58.102Z,82.33
2022-09-07T00:09:04.129Z,82.87
2022-09-07T00:12:06.451Z,82.73
2022-09-07T00:15:11.489Z,84.09
2022-09-07T00:18:13.742Z,86.16
2022-09-07T00:21:17.828Z,84.22
2022-09-07T00:24:20.136Z,84.28
2022-09-07T00:27:22.468Z,84.15
2022-09-07T00:30:24.732Z,84.99
2022-09-07T00:33:27.617Z,85.29
2022-09-07T00:36:30.599Z,86.36
2022-09-07T00:39:34.028Z,84.87
2022-09-07T00:42:36.373Z,84.09
2022-09-07T00:45:38.724Z,84.14
2022-09-07T00:48:47.226Z,84.88
2022-09-07T00:51:57.734Z,84.96
2022-09-07T00:55:06.007Z,84.95
2022-09-07T00:58:09.390Z,84.67
2022-09-07T01:01:12.201Z,85.02
2022-09-07T01:04:15.520Z,86.02
2022-09-07T01:07:18.695Z,87.40
2022-09-07T01:10:24.965Z,86.74
2022-09-07T01:13:27.739Z,86.24
2022-09-07T01:16:58.959Z,86.58
2022-09-07T01:20:29.028Z,86.52
2022-09-07T01:23:52.597Z,85.71
2022-09-07T01:26:57.411Z,85.24
2022-09-07T01:30:07.152Z,85.49
2022-09-07T01:33:18.942Z,85.36
2022-09-07T01:36:33.746Z,85.57
2022-09-07T01:40:04.636Z,86.02
2022-09-07T01:43:12.727Z,86.67
2022-09-07T01:46:45.755Z,85.47
2022-09-07T01:49:48.133Z,85.41
2022-09-07T01:53:07.898Z,86.94
2022-09-07T01:56:16.876Z,88.20
2022-09-07T01:59:32.862Z,88.30
2022-09-07T02:02:43.975Z,88.30
2022-09-07T02:06:01.049Z,85.15
2022-09-07T02:09:10.750Z,84.36
2022-09-07T02:12:30.427Z,83.93
2022-09-07T02:15:50.756Z,83.80
2022-09-07T02:19:07.435Z,83.42
2022-09-07T02:22:14.539Z,83.49
2022-09-07T02:25:22.120Z,82.86
2022-09-07T02:28:29.408Z,83.03
2022-09-07T02:31:31.850Z,83.19
2022-09-07T02:34:34.388Z,83.66
2022-09-07T02:37:38.423Z,83.08
2022-09-07T02:40:40.804Z,82.75
2022-09-07T02:43:43.113Z,82.68
2022-09-07T02:47:10.033Z,82.76
2022-09-07T02:50:42.445Z,82.96
2022-09-07T02:54:00.823Z,82.52
2022-09-07T02:57:50.745Z,81.71
2022-09-07T03:01:30.321Z,81.37
2022-09-07T03:04:41.536Z,81.41
2022-09-07T03:08:01.204Z,81.57
2022-09-07T03:11:07.457Z,81.16
2022-09-07T03:14:21.142Z,81.17
2022-09-07T03:17:23.406Z,81.17
2022-09-07T03:20:25.819Z,81.51
2022-09-07T03:23:28.086Z,81.11
2022-09-07T03:26:30.518Z,80.43
2022-09-07T03:29:32.800Z,80.88
2022-09-07T03:32:37.036Z,81.02
2022-09-07T03:35:39.292Z,80.96
2022-09-07T03:38:41.659Z,81.07
2022-09-07T03:41:43.916Z,81.34
2022-09-07T03:44:46.502Z,82.60
2022-09-07T03:47:49.692Z,82.47
2022-09-07T03:50:59.067Z,83.85
2022-09-07T03:54:01.319Z,83.73
2022-09-07T03:57:03.789Z,84.13
2022-09-07T04:00:06.732Z,84.62
2022-09-07T04:03:14.526Z,84.28
2022-09-07T04:06:17.861Z,84.39
2022-09-07T04:09:20.303Z,84.91
2022-09-07T04:12:22.579Z,85.27
2022-09-07T04:15:31.105Z,84.89
2022-09-07T04:18:36.467Z,84.69
2022-09-07T04:21:39.214Z,84.21
2022-09-07T04:24:41.489Z,83.11
2022-09-07T04:27:43.839Z,83.62
2022-09-07T04:30:47.096Z,83.65
2022-09-07T04:33:50.706Z,83.73
2022-09-07T04:36:52.997Z,83.81
2022-09-07T04:39:58.203Z,83.92
2022-09-07T04:43:00.571Z,85.28
2022-09-07T04:46:04.574Z,86.12
2022-09-07T04:49:09.379Z,86.43
2022-09-07T04:52:11.805Z,85.52
2022-09-07T04:55:14.086Z,85.02
2022-09-07T04:58:16.387Z,84.25
2022-09-07T05:01:21.291Z,83.39
2022-09-07T05:04:23.651Z,83.53
2022-09-07T05:07:25.966Z,83.43
2022-09-07T05:10:28.302Z,83.89
2022-09-07T05:13:31.963Z,84.34
2022-09-07T05:16:37.524Z,84.29
2022-09-07T05:19:40.094Z,84.00
2022-09-07T05:22:42.671Z,82.60
2022-09-07T05:25:47.006Z,80.38
2022-09-07T05:28:50.406Z,78.85
2022-09-07T05:31:55.279Z,78.75
2022-09-07T05:34:57.884Z,78.24
2022-09-07T05:38:00.439Z,77.79
2022-09-07T05:41:17.457Z,77.14
2022-09-07T05:47:42.996Z,76.32
2022-09-07T05:50:53.154Z,76.07
2022-09-07T05:53:56.861Z,75.96
2022-09-07T05:57:02.921Z,75.95
2022-09-07T06:00:05.708Z,75.11
2022-09-07T06:03:14.909Z,74.21
2022-09-07T06:06:19.367Z,73.74
2022-09-07T06:09:21.846Z,73.48
2022-09-07T06:12:24.426Z,72.70
2022-09-07T06:15:26.957Z,71.67
2022-09-07T06:18:31.586Z,71.84
2022-09-07T06:21:43.588Z,72.55
2022-09-07T06:24:48.367Z,72.28
2022-09-07T06:27:52.133Z,72.75
2022-09-07T06:30:59.571Z,71.18
2022-09-07T06:34:09.820Z,71.13
2022-09-07T06:37:12.439Z,70.62
2022-09-07T06:40:15.028Z,69.54
2022-09-07T06:43:17.408Z,67.99
2022-09-07T06:49:42.845Z,63.45
2022-09-07T06:56:10.852Z,60.90
2022-09-07T06:59:13.255Z,60.48
2022-09-07T07:02:15.651Z,59.51
2022-09-07T07:05:17.976Z,58.21
2022-09-07T07:08:21.847Z,57.89
2022-09-07T07:11:24.080Z,57.01
2022-09-07T07:14:26.900Z,55.59
2022-09-07T07:17:29.805Z,53.76
2022-09-07T07:20:32.385Z,54.41
2022-09-07T07:23:35.480Z,52.04
2022-09-07T07:26:40.237Z,52.36
2022-09-07T07:29:43.224Z,52.08
2022-09-07T07:32:46.228Z,51.93
2022-09-07T07:35:48.527Z,51.02
2022-09-07T07:39:02.072Z,49.55
2022-09-07T07:42:05.856Z,49.81
2022-09-07T07:48:34.627Z,46.47
2022-09-07T07:54:59.534Z,46.01
2022-09-07T07:58:01.990Z,45.58
2022-09-07T08:01:10.808Z,45.80
2022-09-07T08:04:13.127Z,47.05
2022-09-07T08:07:15.857Z,45.77
2022-09-07T08:10:18.156Z,48.08
2022-09-07T08:13:21.395Z,46.35
2022-09-07T08:16:23.932Z,45.70
2022-09-07T08:19:26.160Z,46.25
2022-09-07T08:22:30.711Z,47.72
2022-09-07T08:25:36.450Z,50.46
2022-09-07T08:28:40.624Z,50.96
2022-09-07T08:31:44.270Z,51.34
2022-09-07T08:34:46.519Z,50.20
2022-09-07T08:37:48.650Z,49.91
2022-09-07T08:40:51.310Z,49.25
2022-09-07T08:44:03.701Z,47.38
2022-09-07T08:47:27.865Z,48.11
2022-09-07T08:50:37.017Z,46.24
2022-09-07T08:53:45.878Z,43.06
2022-09-07T09:00:16.898Z,42.03
2022-09-07T09:03:30.989Z,39.73
2022-09-07T09:06:46.975Z,39.48
2022-09-07T09:10:09.537Z,39.67
2022-09-07T09:13:19.958Z,40.69
2022-09-07T09:16:43.123Z,39.83
2022-09-07T09:19:52.360Z,38.15
2022-09-07T09:23:00.874Z,39.64
2022-09-07T09:26:12.374Z,41.67
2022-09-07T09:29:21.520Z,41.18
2022-09-07T09:32:33.351Z,41.43
2022-09-07T09:35:36.412Z,42.60
2022-09-07T09:38:40.589Z,42.26
2022-09-07T09:41:42.787Z,42.98
2022-09-07T09:44:45.567Z,42.33
2022-09-07T09:47:53.074Z,42.98
2022-09-07T09:54:39.224Z,41.95
2022-09-07T10:01:26.930Z,39.19
2022-09-07T10:04:35.140Z,38.94
2022-09-07T10:07:37.335Z,38.32
2022-09-07T10:10:50.618Z,38.07
2022-09-07T10:13:57.865Z,37.65
2022-09-07T10:17:02.140Z,37.15
2022-09-07T10:20:16.460Z,35.49
2022-09-07T10:23:22.349Z,34.80
2022-09-07T10:26:33.318Z,34.37
2022-09-07T10:29:35.998Z,35.74
2022-09-07T10:32:54.909Z,35.06
2022-09-07T10:36:03.333Z,32.85
2022-09-07T10:39:15.830Z,31.39
2022-09-07T10:42:30.974Z,31.12
2022-09-07T10:45:48.932Z,30.22
2022-09-07T10:49:03.296Z,30.06
2022-09-07T10:52:29.020Z,29.41
2022-09-07T10:55:42.425Z,29.51
2022-09-07T10:59:08.632Z,29.66
2022-09-07T11:02:19.495Z,28.90
2022-09-07T11:05:39.848Z,29.20
2022-09-07T11:09:19.650Z,28.72
2022-09-07T11:12:37.595Z,27.85
2022-09-07T11:15:54.955Z,28.98
2022-09-07T11:19:35.952Z,28.62
2022-09-07T11:22:50.557Z,28.18
2022-09-07T11:26:05.483Z,28.34
2022-09-07T11:29:35.961Z,27.82
2022-09-07T11:33:02.515Z,27.85
2022-09-07T11:36:15.189Z,27.87
2022-09-07T11:39:23.367Z,26.76
2022-09-07T11:42:43.390Z,27.05
2022-09-07T11:45:54.257Z,25.94
2022-09-07T11:48:58.089Z,26.29
2022-09-07T11:52:05.711Z,26.44
2022-09-07T11:55:20.580Z,26.95
2022-09-07T11:58:59.471Z,26.91
2022-09-07T12:02:13.868Z,27.24
2022-09-07T12:05:46.991Z,27.25
2022-09-07T12:09:21.765Z,26.44
2022-09-07T12:12:29.586Z,26.11
2022-09-07T12:16:04.939Z,26.40
2022-09-07T12:19:18.937Z,27.77
2022-09-07T12:22:22.472Z,26.43
2022-09-07T12:25:25.771Z,26.29
2022-09-07T12:28:56.942Z,24.94
2022-09-07T12:35:26.175Z,25.11
2022-09-07T12:38:31.411Z,26.70
2022-09-07T12:41:47.413Z,24.90
2022-09-07T12:45:28.363Z,24.87
2022-09-07T12:48:43.580Z,25.72
2022-09-07T12:52:15.771Z,26.81
2022-09-07T12:55:29.849Z,27.22
2022-09-07T12:58:44.362Z,27.21
2022-09-07T13:02:05.039Z,26.93
2022-09-07T13:05:22.599Z,26.07
2022-09-07T13:08:27.811Z,27.19
2022-09-07T13:11:40.346Z,26.03
2022-09-07T13:14:43.736Z,26.14
2022-09-07T13:17:55.911Z,26.07
2022-09-07T13:21:07.373Z,25.82
2022-09-07T13:27:57.825Z,26.35
2022-09-07T13:31:24.508Z,28.43
2022-09-07T13:34:32.321Z,29.81
2022-09-07T13:37:58.923Z,32.04
2022-09-07T13:41:14.657Z,32.85
2022-09-07T13:44:26.537Z,33.57
2022-09-07T13:47:35.833Z,30.85
2022-09-07T13:50:46.854Z,28.81
2022-09-07T13:54:10.822Z,29.11
2022-09-07T13:57:27.486Z,26.80
2022-09-07T14:00:31.017Z,28.19
2022-09-07T14:03:39.483Z,27.39
2022-09-07T14:06:41.831Z,28.04
2022-09-07T14:09:44.001Z,28.09
2022-09-07T14:12:53.278Z,27.82
2022-09-07T14:15:55.408Z,27.31
2022-09-07T14:18:58.880Z,27.63
2022-09-07T14:22:04.635Z,28.13
2022-09-07T14:25:07.886Z,27.98
2022-09-07T14:28:29.958Z,28.05
2022-09-07T14:31:32.642Z,28.77
2022-09-07T14:34:37.548Z,29.15
2022-09-07T14:37:40.343Z,29.59
2022-09-07T14:40:42.847Z,29.60
2022-09-07T14:43:53.940Z,31.87
2022-09-07T14:46:58.524Z,30.77
2022-09-07T14:50:06.063Z,31.45
2022-09-07T14:56:39.301Z,31.47
2022-09-07T14:59:47.194Z,31.49
2022-09-07T15:02:56.128Z,31.94
2022-09-07T15:06:03.224Z,32.51
2022-09-07T15:09:07.258Z,34.21
2022-09-07T15:12:27.149Z,33.21
2022-09-07T15:15:39.135Z,36.54
2022-09-07T15:18:54.943Z,36.04
2022-09-07T15:22:10.987Z,34.60
2022-09-07T15:25:13.893Z,35.88
2022-09-07T15:31:59.285Z,40.22
2022-09-07T15:35:05.305Z,43.16
2022-09-07T15:41:32.071Z,44.15
2022-09-07T15:44:34.364Z,46.99
2022-09-07T15:47:48.016Z,48.14
2022-09-07T15:52:04.854Z,50.13
2022-09-07T15:54:28.359Z,48.88
2022-09-07T16:01:51.598Z,46.02
2022-09-07T16:04:16.052Z,52.66
2022-09-07T16:07:18.705Z,50.36
2022-09-07T16:10:21.347Z,49.87
2022-09-07T16:13:24.318Z,50.42
2022-09-07T16:17:26.528Z,50.57
2022-09-07T16:19:49.776Z,45.81
2022-09-07T16:26:20.545Z,51.17
2022-09-07T16:29:22.768Z,53.99
2022-09-07T16:36:01.288Z,52.12
2022-09-07T16:39:03.957Z,53.50
2022-09-07T16:42:06.897Z,56.58
2022-09-07T16:48:34.492Z,44.54
2022-09-07T16:51:37.072Z,44.22
2022-09-07T16:54:39.770Z,44.39
2022-09-07T17:01:08.786Z,44.79
2022-09-07T17:04:11.909Z,43.91
2022-09-07T17:07:14.136Z,44.56
2022-09-07T17:10:16.415Z,44.89
2022-09-07T17:13:18.592Z,45.66
2022-09-07T17:16:23.737Z,44.84
2022-09-07T17:19:29.424Z,44.56
2022-09-07T17:22:32.150Z,45.23
2022-09-07T17:25:34.478Z,44.61
2022-09-07T17:28:38.850Z,44.88
2022-09-07T17:35:03.413Z,46.05
2022-09-07T17:41:31.075Z,47.20
2022-09-07T17:44:37.843Z,47.20
2022-09-07T17:47:40.577Z,46.93
2022-09-07T17:50:42.999Z,46.98
2022-09-07T17:53:46.220Z,46.98
2022-09-07T17:56:48.515Z,46.61
2022-09-07T18:03:12.928Z,46.57
2022-09-07T18:06:15.179Z,48.16
2022-09-07T18:09:17.770Z,48.23
2022-09-07T18:12:20.485Z,48.45
2022-09-07T18:15:22.634Z,48.57
2022-09-07T18:18:25.019Z,51.97
2022-09-07T18:21:32.983Z,51.43
2022-09-07T18:24:36.868Z,50.32
2022-09-07T18:27:39.858Z,51.32
2022-09-07T18:30:42.846Z,52.78
2022-09-07T18:33:45.622Z,51.56
2022-09-07T18:36:48.210Z,50.41
2022-09-07T18:39:50.421Z,51.76
2022-09-07T18:42:52.742Z,53.39
2022-09-07T18:46:04.899Z,51.13
2022-09-07T18:49:07.736Z,52.57
2022-09-07T18:55:32.999Z,51.94
2022-09-07T18:58:35.181Z,56.28
2022-09-07T19:01:37.936Z,51.91
2022-09-07T19:08:03.843Z,52.81
2022-09-07T19:11:14.835Z,51.18
2022-09-07T19:14:17.523Z,53.53
2022-09-07T19:17:19.695Z,54.12
2022-09-07T19:20:26.024Z,54.11
2022-09-07T19:23:28.177Z,53.22
2022-09-07T19:26:33.888Z,52.91
2022-09-07T19:29:36.072Z,57.26
2022-09-07T19:32:38.435Z,58.52
2022-09-07T19:35:40.585Z,60.05
2022-09-07T19:38:42.845Z,58.33
2022-09-07T19:41:45.119Z,56.93
2022-09-07T19:44:47.350Z,54.14
2022-09-07T19:47:50.633Z,54.47
2022-09-07T19:50:53.208Z,54.59
2022-09-07T19:53:55.459Z,53.32
2022-09-07T19:56:57.697Z,52.86
2022-09-07T20:00:00.277Z,53.14
2022-09-07T20:03:02.540Z,53.52
2022-09-07T20:06:15.741Z,53.89
2022-09-07T20:09:20.452Z,54.05
2022-09-07T20:12:22.618Z,54.10
2022-09-07T20:15:25.108Z,54.44
2022-09-07T20:18:27.903Z,54.64
2022-09-07T20:21:30.165Z,54.16
2022-09-07T20:24:32.548Z,54.12
2022-09-07T20:27:35.928Z,54.77
2022-09-07T20:30:43.784Z,56.74
2022-09-07T20:33:46.791Z,55.11
2022-09-07T20:36:50.543Z,55.94
2022-09-07T20:39:53.092Z,58.86
2022-09-07T20:42:58.808Z,61.49
2022-09-07T20:46:01.203Z,61.84
2022-09-07T20:49:04.758Z,62.72
2022-09-07T20:52:06.982Z,63.95
2022-09-07T20:55:09.502Z,64.54
2022-09-07T20:58:12.214Z,63.68
2022-09-07T21:01:17.797Z,63.06
2022-09-07T21:04:20.255Z,63.95
2022-09-07T21:07:23.352Z,65.78
2022-09-07T21:10:25.530Z,65.69
2022-09-07T21:13:27.743Z,63.13
2022-09-07T21:16:30.162Z,61.21
2022-09-07T21:19:32.401Z,63.84
2022-09-07T21:22:34.608Z,64.15
2022-09-07T21:25:43.995Z,64.34
2022-09-07T21:28:46.164Z,67.83
2022-09-07T21:31:48.837Z,67.72
2022-09-07T21:34:51.059Z,68.52
2022-09-07T21:37:53.504Z,69.21
2022-09-07T21:40:55.671Z,69.61
2022-09-07T21:43:59.749Z,70.88
2022-09-07T21:47:01.976Z,70.67
2022-09-07T21:50:05.101Z,71.97
2022-09-07T21:53:07.304Z,72.70
2022-09-07T21:56:14.304Z,71.62
2022-09-07T21:59:16.542Z,71.39
2022-09-07T22:02:18.855Z,71.10
2022-09-07T22:05:21.146Z,71.58
2022-09-07T22:08:23.457Z,71.30
2022-09-07T22:11:27.523Z,72.71
2022-09-07T22:14:29.756Z,71.76
2022-09-07T22:17:31.937Z,72.62
2022-09-07T22:20:34.923Z,72.81
2022-09-07T22:23:39.816Z,73.70
2022-09-07T22:26:42.192Z,73.57
2022-09-07T22:29:44.883Z,73.73
2022-09-07T22:32:48.441Z,73.87
2022-09-07T22:35:50.712Z,74.38
2022-09-07T22:38:54.960Z,75.29
2022-09-07T22:41:57.211Z,74.78
2022-09-07T22:44:59.549Z,75.65
2022-09-07T22:48:01.966Z,76.79
2022-09-07T22:51:05.316Z,76.58
2022-09-07T22:54:08.494Z,76.86
2022-09-07T22:57:17.260Z,77.90
2022-09-07T23:00:19.492Z,74.46
2022-09-07T23:03:21.701Z,72.82
2022-09-07T23:06:37.808Z,75.25
2022-09-07T23:09:40.002Z,70.60
2022-09-07T23:12:42.207Z,76.53
2022-09-07T23:15:44.899Z,76.63
2022-09-07T23:18:48.273Z,76.08
2022-09-07T23:21:50.509Z,73.22
2022-09-07T23:24:52.694Z,71.53
2022-09-07T23:27:54.878Z,69.43
2022-09-07T23:30:57.755Z,68.70
2022-09-07T23:34:01.760Z,72.81
2022-09-07T23:37:03.969Z,70.84
2022-09-07T23:40:08.562Z,73.49
2022-09-07T23:43:10.987Z,70.90
2022-09-07T23:46:14.051Z,71.19
2022-09-07T23:49:16.540Z,70.55
2022-09-07T23:52:18.857Z,70.14
2022-09-07T23:55:21.067Z,71.02
2022-09-07T23:58:23.791Z,70.47
